Hauptseite
METAR-TAF:

METAR-TAF

Flughäfen :

Arnheim, Niederlande

Militärflugplatz Deelen

Breite: 52-04N, Länge: 005-53E, Höhe: 48 m

Beobachtung

Neuester Wetterbericht von vor 31 Minuten, um 08:25 UTC
Wind 15 kt aus Süd/Südwest, variierte zwischen Süd/Südost und West/Südwest
Temperatur 10°C
Luftfeuchtigkeit 66%
Luftdruck 1000 hPa
Sichtweite 10 km oder mehr
Geschlossene Wolkendecke in der Höhe von 3400 ft

METAR: EHDL 270825Z AUTO 20015KT 160V240 9999 OVC034 10/04 Q1000 BLU

Zeit: 09:56 (08:56 UTC)


TAF: fehlend

Wetterbeobachtungen und Prognosen von mehr als 4000 Flughäfen (METAR und TAF Bericht).

Die verfügbaren Stationen werden durch gelbe und rote Markierungen auf der Karte dargestellt.

Führen Sie die Maus auf sie, um den Namen der Station zu sehen.

Darauf klicken, um die Beobachtung von Wetterbeobachtungen und Prognosen zu sehen.

Um die Karte zu ändern : klicken Sie auf den grünen Tasten mit einem schwarzen Kreuz Zum Vergrößern, auf den grünen Button mit einem Gedankenstrich zu verkleinern, oder auf die grünen Pfeile für benachbarte Karten.


METAR-TAF: